Time;durP1;ratioP1;P1;durP2;ratioP2;P2;SDS_P1;SDS_P2;PMS_P1;PMS_P2;Temp;Humidity;BMP_temperature;BMP_pressure;BME280_temperature;BME280_humidity;BME280_pressure;Samples;Min_cycle;Max_cycle;Signal;HPM_P1;HPM_P2
2022/02/21 00:03:55;;;;;;;2.10;0.90;;;;;;;10.90;53.94;96615.16;8350525;28;20281;-64
2022/02/21 00:07:59;;;;;;;3.40;1.10;;;;;;;11.05;53.59;96600.34;8350894;28;20228;-64
2022/02/21 00:12:02;;;;;;;1.77;0.87;;;;;;;11.10;53.39;96587.94;8350625;28;20240;-64
2022/02/21 00:16:05;;;;;;;4.40;1.00;;;;;;;11.20;53.19;96575.16;8350732;28;20535;-64
2022/02/21 00:20:09;;;;;;;3.43;1.10;;;;;;;11.03;53.42;96565.97;8350541;28;20236;-64
2022/02/21 00:24:14;;;;;;;3.53;1.10;;;;;;;10.98;54.23;96560.25;8350851;28;20310;-64
2022/02/21 00:28:17;;;;;;;3.03;1.10;;;;;;;11.05;54.48;96547.72;8350427;28;20419;-64
2022/02/21 00:32:19;;;;;;;2.20;0.80;;;;;;;10.84;54.79;96527.53;8349814;28;20235;-65
2022/02/21 00:36:23;;;;;;;3.17;1.10;;;;;;;11.04;55.39;96523.59;8347288;28;20239;-65
2022/02/21 00:40:27;;;;;;;3.47;1.13;;;;;;;11.03;55.32;96515.91;8349466;28;20227;-65
2022/02/21 00:44:30;;;;;;;3.90;1.20;;;;;;;10.96;55.32;96495.59;8350033;28;20243;-65
2022/02/21 00:48:33;;;;;;;3.97;1.00;;;;;;;11.07;54.72;96501.81;8349476;28;20228;-65
2022/02/21 00:52:36;;;;;;;3.67;1.07;;;;;;;11.10;54.65;96501.59;8349697;28;20236;-66
2022/02/21 00:56:41;;;;;;;2.47;0.90;;;;;;;10.95;54.77;96477.59;8349481;28;20236;-65
2022/02/21 01:00:44;;;;;;;1.93;0.80;;;;;;;11.11;54.70;96472.16;8349256;28;20227;-65
2022/02/21 01:04:47;;;;;;;2.63;1.00;;;;;;;10.83;54.69;96476.66;8348736;28;20228;-65
2022/02/21 01:08:50;;;;;;;4.30;1.20;;;;;;;10.81;54.81;96433.69;8346738;28;20258;-65
2022/02/21 01:12:54;;;;;;;4.10;1.27;;;;;;;10.95;54.37;96425.81;8348928;28;20232;-65
2022/02/21 01:16:57;;;;;;;3.10;1.10;;;;;;;10.80;54.77;96432.88;8349047;28;20399;-65
2022/02/21 01:21:01;;;;;;;4.00;1.20;;;;;;;11.07;54.01;96421.50;8349534;28;20239;-64
2022/02/21 01:25:05;;;;;;;4.80;1.20;;;;;;;11.18;54.02;96421.56;8349259;28;20228;-65
2022/02/21 01:29:10;;;;;;;4.03;1.10;;;;;;;11.03;54.15;96394.16;8348538;28;20231;-65
2022/02/21 01:33:16;;;;;;;5.13;1.10;;;;;;;10.60;55.48;96398.00;8348766;28;20234;-64
2022/02/21 01:37:21;;;;;;;1.77;0.80;;;;;;;10.94;55.11;96387.88;8348568;28;20531;-65
2022/02/21 01:41:24;;;;;;;1.77;0.90;;;;;;;10.86;55.04;96362.50;8348295;28;20561;-65
2022/02/21 01:45:28;;;;;;;5.23;1.30;;;;;;;10.83;54.80;96352.38;8349652;28;20423;-65
2022/02/21 01:49:31;;;;;;;6.17;1.10;;;;;;;10.95;54.97;96358.47;8349820;28;20250;-65
2022/02/21 01:53:34;;;;;;;3.37;1.07;;;;;;;10.90;55.22;96360.53;8350031;28;20219;-65
2022/02/21 01:57:38;;;;;;;2.33;0.90;;;;;;;10.76;55.51;96346.00;8350187;28;20200;-65
2022/02/21 02:01:42;;;;;;;2.57;1.03;;;;;;;10.79;55.50;96329.41;8348004;28;20243;-65
2022/02/21 02:05:46;;;;;;;2.07;0.80;;;;;;;11.01;55.38;96321.75;8347549;28;20243;-65
2022/02/21 02:09:49;;;;;;;3.77;0.90;;;;;;;10.99;55.45;96318.44;8347555;28;20236;-65
2022/02/21 02:13:52;;;;;;;2.10;0.93;;;;;;;10.90;55.71;96288.84;8347677;28;20239;-65
2022/02/21 02:17:56;;;;;;;2.33;0.90;;;;;;;10.96;55.82;96272.84;8347706;28;20239;-65
2022/02/21 02:22:06;;;;;;;2.10;0.80;;;;;;;11.10;55.75;96256.31;8347747;28;20400;-65
2022/02/21 02:26:08;;;;;;;3.17;1.03;;;;;;;11.03;55.91;96246.53;8347780;28;20236;-65
2022/02/21 02:30:12;;;;;;;3.00;0.80;;;;;;;11.19;55.36;96241.03;8347502;28;20243;-65
2022/02/21 02:34:15;;;;;;;1.70;0.90;;;;;;;10.89;56.42;96216.44;8347278;28;20228;-65
2022/02/21 02:38:19;;;;;;;4.07;1.10;;;;;;;10.81;56.76;96213.59;8347329;28;20243;-65
2022/02/21 02:42:22;;;;;;;3.73;0.90;;;;;;;11.11;55.82;96206.13;8347266;28;20231;-65
2022/02/21 02:46:25;;;;;;;2.67;0.90;;;;;;;11.10;55.98;96201.06;8347012;28;20274;-65
2022/02/21 02:50:28;;;;;;;4.00;1.17;;;;;;;11.03;56.16;96179.19;8346964;28;20247;-65
2022/02/21 02:54:32;;;;;;;3.17;1.10;;;;;;;10.99;56.58;96170.00;8338555;28;20419;-67
2022/02/21 02:58:35;;;;;;;2.63;0.80;;;;;;;11.05;57.01;96169.53;8347096;28;20232;-65
2022/02/21 03:02:38;;;;;;;3.40;1.00;;;;;;;11.21;56.77;96151.06;8348825;28;20243;-65
2022/02/21 03:06:41;;;;;;;3.27;1.07;;;;;;;10.95;57.50;96149.47;8352769;28;20232;-65
2022/02/21 03:10:45;;;;;;;3.57;1.00;;;;;;;10.99;57.73;96151.84;8352729;28;20239;-65
2022/02/21 03:14:48;;;;;;;3.53;1.20;;;;;;;10.93;58.51;96115.09;8352636;28;20239;-65
2022/02/21 03:18:51;;;;;;;3.87;1.50;;;;;;;10.74;59.30;96117.44;8352650;28;20444;-65
2022/02/21 03:22:53;;;;;;;1.90;0.83;;;;;;;10.76;60.83;96103.41;8352399;28;20232;-65
2022/02/21 03:26:59;;;;;;;3.93;1.07;;;;;;;11.05;60.59;96104.75;8352095;28;20240;-65
2022/02/21 03:31:02;;;;;;;3.63;1.13;;;;;;;10.80;60.46;96088.47;8352201;28;20228;-65
2022/02/21 03:35:06;;;;;;;3.97;1.10;;;;;;;10.76;60.39;96072.34;8351886;28;20519;-65
2022/02/21 03:39:09;;;;;;;3.47;1.20;;;;;;;10.87;60.28;96097.44;8352167;28;20232;-65
2022/02/21 03:43:13;;;;;;;2.27;0.83;;;;;;;10.68;60.71;96291.31;8351967;28;20259;-64
2022/02/21 03:47:16;;;;;;;6.17;1.50;;;;;;;9.35;59.26;96315.84;8351810;28;20244;-65
2022/02/21 03:51:19;;;;;;;2.80;0.73;;;;;;;9.11;59.71;96328.59;8351451;28;20450;-65
2022/02/21 03:55:22;;;;;;;3.93;1.30;;;;;;;8.20;59.99;96328.25;8351712;28;20236;-65
2022/02/21 03:59:27;;;;;;;2.87;0.83;;;;;;;7.91;59.97;96343.72;8351643;28;20543;-65
2022/02/21 04:03:29;;;;;;;2.37;1.03;;;;;;;8.13;59.58;96351.00;8351242;28;20236;-65
2022/02/21 04:07:33;;;;;;;3.60;0.97;;;;;;;7.52;60.58;96355.47;8351149;28;20232;-65
2022/02/21 04:11:39;;;;;;;2.43;1.00;;;;;;;7.47;60.87;96372.09;8351080;28;20236;-66
2022/02/21 04:15:44;;;;;;;2.80;1.00;;;;;;;7.71;60.48;96350.06;8350051;28;20557;-65
2022/02/21 04:19:47;;;;;;;4.40;1.17;;;;;;;8.01;59.65;96341.41;8351184;28;20231;-65
2022/02/21 04:23:49;;;;;;;3.80;1.20;;;;;;;7.67;59.11;96340.84;8350997;28;20236;-64
2022/02/21 04:27:53;;;;;;;4.73;1.13;;;;;;;7.77;59.50;96349.69;8350490;28;20255;-65
2022/02/21 04:31:58;;;;;;;4.43;1.53;;;;;;;7.53;59.95;96322.78;8350827;28;20256;-65
2022/02/21 04:36:01;;;;;;;3.53;1.53;;;;;;;7.85;59.01;96356.97;8349806;28;20224;-65
2022/02/21 04:40:05;;;;;;;5.30;1.40;;;;;;;7.72;59.44;96356.84;8350567;28;20254;-65
2022/02/21 04:44:09;;;;;;;5.90;1.47;;;;;;;8.05;58.85;96354.97;8349941;28;20232;-64
2022/02/21 04:48:14;;;;;;;4.87;1.60;;;;;;;7.84;58.63;96352.72;8349451;28;20228;-65
2022/02/21 04:52:18;;;;;;;3.93;1.30;;;;;;;8.03;58.41;96373.94;8349496;28;20232;-65
2022/02/21 04:56:21;;;;;;;3.97;1.30;;;;;;;8.08;57.77;96354.78;8349645;28;20240;-64
2022/02/21 05:00:24;;;;;;;4.43;1.30;;;;;;;8.44;57.07;96362.06;8348853;28;20230;-65
2022/02/21 05:04:28;;;;;;;4.07;1.10;;;;;;;8.52;56.76;96352.09;8349156;28;20232;-65
2022/02/21 05:08:33;;;;;;;4.63;1.27;;;;;;;8.48;56.31;96360.13;8348941;28;20228;-65
2022/02/21 05:12:36;;;;;;;3.23;1.37;;;;;;;8.53;55.94;96384.72;8349050;28;20389;-66
2022/02/21 05:16:39;;;;;;;6.07;1.63;;;;;;;8.49;55.33;96393.59;8348947;28;20228;-65
2022/02/21 05:20:43;;;;;;;4.07;1.23;;;;;;;8.53;55.89;96401.94;8349186;28;20235;-65
2022/02/21 05:24:46;;;;;;;4.07;1.30;;;;;;;8.44;55.12;96418.00;8348457;28;20232;-65
2022/02/21 05:28:49;;;;;;;5.23;1.60;;;;;;;8.46;56.16;96447.13;8348725;28;20232;-65
2022/02/21 05:32:52;;;;;;;6.17;1.60;;;;;;;7.98;59.17;96434.41;8348383;28;20239;-65
2022/02/21 05:36:58;;;;;;;4.10;1.30;;;;;;;7.96;59.49;96434.50;8348605;28;20227;-65
2022/02/21 05:41:00;;;;;;;5.63;1.53;;;;;;;8.26;58.18;96451.66;8348617;28;20231;-65
2022/02/21 05:45:04;;;;;;;3.67;1.20;;;;;;;8.30;58.60;96447.16;8347929;28;20254;-64
2022/02/21 05:49:08;;;;;;;2.33;1.20;;;;;;;7.82;59.10;96408.69;8347469;28;20231;-65
2022/02/21 05:53:12;;;;;;;2.50;1.00;;;;;;;8.12;59.47;96415.56;8347522;28;20236;-65
2022/02/21 05:57:16;;;;;;;3.73;1.40;;;;;;;8.33;58.50;96427.16;8347183;28;20557;-65
2022/02/21 06:01:19;;;;;;;3.90;1.40;;;;;;;8.30;58.40;96435.09;8346998;28;20239;-65
2022/02/21 06:05:22;;;;;;;3.57;1.30;;;;;;;8.38;58.61;96458.69;8346929;28;20232;-64
2022/02/21 06:09:27;;;;;;;5.43;2.00;;;;;;;8.22;58.83;96479.41;8344440;28;20231;-65
2022/02/21 06:13:30;;;;;;;3.23;1.73;;;;;;;8.27;58.64;96506.66;8343915;28;20236;-65
2022/02/21 06:17:33;;;;;;;3.67;1.47;;;;;;;8.33;58.55;96522.59;8338967;28;20228;-65
2022/02/21 06:21:36;;;;;;;3.80;1.53;;;;;;;8.61;57.61;96528.75;8346667;28;20232;-65
2022/02/21 06:25:42;;;;;;;3.47;1.53;;;;;;;8.70;57.76;96535.13;8346736;28;20419;-65
2022/02/21 06:29:45;;;;;;;3.27;1.00;;;;;;;8.80;56.98;96547.38;8346370;28;20418;-65
2022/02/21 06:33:47;;;;;;;3.57;1.17;;;;;;;8.69;57.20;96534.28;8345962;28;20234;-65
2022/02/21 06:37:54;;;;;;;4.90;1.50;;;;;;;8.39;57.80;96524.00;8349136;28;20235;-65
2022/02/21 06:41:58;;;;;;;10.60;2.03;;;;;;;7.94;55.58;96497.34;8350778;28;20539;-65
2022/02/21 06:46:01;;;;;;;5.87;2.00;;;;;;;7.72;54.61;96484.88;8352685;28;20228;-65
2022/02/21 06:50:06;;;;;;;8.17;2.13;;;;;;;8.00;52.88;96484.97;8352739;28;20228;-64
2022/02/21 06:54:09;;;;;;;7.13;2.20;;;;;;;7.66;53.57;96514.41;8350235;28;20235;-64
2022/02/21 06:58:14;;;;;;;8.43;2.43;;;;;;;7.56;51.79;96519.22;8353778;28;20248;-64
2022/02/21 07:02:17;;;;;;;8.97;2.73;;;;;;;7.52;52.26;96561.53;8352979;28;20427;-64
2022/02/21 07:06:20;;;;;;;10.23;2.77;;;;;;;7.77;51.95;96555.03;8353095;28;20233;-64
2022/02/21 07:10:23;;;;;;;10.30;2.60;;;;;;;8.15;51.12;96568.34;8352890;28;20235;-64
2022/02/21 07:14:28;;;;;;;10.03;3.10;;;;;;;8.19;50.37;96587.06;8352712;28;20239;-64
2022/02/21 07:18:31;;;;;;;13.13;3.13;;;;;;;8.25;50.86;96581.53;8352500;28;20236;-64
2022/02/21 07:22:33;;;;;;;9.63;2.83;;;;;;;8.39;49.82;96583.31;8352107;28;20224;-65
2022/02/21 07:26:36;;;;;;;9.40;2.30;;;;;;;8.25;50.58;96596.19;8352174;28;20240;-65
2022/02/21 07:30:42;;;;;;;8.87;2.90;;;;;;;8.64;50.20;96624.03;8352121;28;20236;-64
2022/02/21 07:34:45;;;;;;;11.07;2.70;;;;;;;8.79;50.60;96610.25;8352183;28;20243;-65
2022/02/21 07:38:49;;;;;;;8.77;2.47;;;;;;;8.79;50.42;96599.09;8351728;28;20243;-64
2022/02/21 07:42:53;;;;;;;5.93;2.07;;;;;;;9.69;48.51;96628.13;8351547;28;20425;-64
2022/02/21 07:46:58;;;;;;;9.83;2.63;;;;;;;8.92;50.51;96618.09;8351798;28;20243;-64
2022/02/21 07:51:01;;;;;;;8.63;2.60;;;;;;;8.66;49.20;96642.84;8351248;28;20235;-64
2022/02/21 07:55:04;;;;;;;7.73;2.40;;;;;;;8.48;48.51;96634.44;8351550;28;20235;-64
2022/02/21 07:59:08;;;;;;;9.17;2.30;;;;;;;8.42;47.89;96642.53;8351351;28;20227;-64
2022/02/21 08:03:12;;;;;;;10.33;2.80;;;;;;;9.17;45.75;96650.22;8351211;28;20232;-64
2022/02/21 08:07:15;;;;;;;8.23;2.50;;;;;;;9.39;43.26;96635.09;8350969;28;20265;-64
2022/02/21 08:11:18;;;;;;;12.43;2.83;;;;;;;9.91;41.31;96635.38;8351024;28;20538;-64
2022/02/21 08:15:25;;;;;;;9.13;2.57;;;;;;;10.25;40.83;96641.03;8350807;28;20235;-64
2022/02/21 08:19:29;;;;;;;9.17;2.77;;;;;;;10.57;38.64;96646.72;8350796;28;20242;-64
2022/02/21 08:23:32;;;;;;;10.27;3.07;;;;;;;10.65;38.63;96659.16;8350223;28;20231;-65
2022/02/21 08:27:36;;;;;;;9.37;2.70;;;;;;;10.85;38.60;96678.56;8350102;28;20248;-65
2022/02/21 08:31:40;;;;;;;10.87;3.20;;;;;;;11.45;37.03;96677.97;8350137;28;20244;-64
2022/02/21 08:35:44;;;;;;;8.63;2.53;;;;;;;11.44;36.64;96683.25;8350117;28;20247;-65
2022/02/21 08:39:47;;;;;;;7.03;2.93;;;;;;;11.64;36.24;96700.88;8349902;28;20236;-64
2022/02/21 08:43:50;;;;;;;8.60;2.33;;;;;;;10.89;35.82;96711.09;8349947;28;20246;-64
2022/02/21 08:47:53;;;;;;;12.07;2.83;;;;;;;11.27;36.73;96710.31;8348979;28;20240;-64
2022/02/21 08:51:57;;;;;;;8.53;2.73;;;;;;;11.46;35.90;96720.28;8346379;28;20416;-65
2022/02/21 08:56:00;;;;;;;9.67;2.70;;;;;;;10.50;37.95;96718.75;8348987;28;20231;-64
2022/02/21 09:00:05;;;;;;;9.80;2.93;;;;;;;11.83;35.42;96739.34;8348583;28;20232;-64
2022/02/21 09:04:08;;;;;;;10.60;2.70;;;;;;;11.67;36.04;96733.53;8349726;28;20228;-65
2022/02/21 09:08:12;;;;;;;11.27;3.37;;;;;;;12.48;35.48;96740.06;8349641;28;20228;-64
2022/02/21 09:12:15;;;;;;;10.00;2.87;;;;;;;12.49;34.01;96755.53;8349259;28;20234;-64
2022/02/21 09:16:18;;;;;;;8.87;2.63;;;;;;;12.09;34.33;96765.31;8348991;28;20239;-64
2022/02/21 09:20:22;;;;;;;8.33;2.80;;;;;;;12.65;34.29;96746.63;8348946;28;20232;-64
2022/02/21 09:24:26;;;;;;;8.40;2.60;;;;;;;12.15;34.14;96764.88;8348517;28;20432;-65
2022/02/21 09:28:30;;;;;;;11.03;3.07;;;;;;;12.69;34.54;96761.06;8348306;28;20232;-64
2022/02/21 09:32:33;;;;;;;8.57;3.10;;;;;;;12.05;35.44;96774.22;8347801;28;20243;-65
2022/02/21 09:36:36;;;;;;;6.23;2.30;;;;;;;13.26;55.99;96780.31;8348240;28;20243;-72
2022/02/21 09:40:41;;;;;;;8.67;2.73;;;;;;;14.93;42.92;96760.56;8347062;28;20243;-70
2022/02/21 09:44:46;;;;;;;11.17;3.60;;;;;;;14.26;35.57;96763.16;8347124;28;20227;-66
2022/02/21 09:48:52;;;;;;;9.93;3.10;;;;;;;12.32;33.65;96772.28;8347687;28;20240;-65
2022/02/21 09:53:00;;;;;;;9.57;3.23;;;;;;;12.02;35.11;96783.03;8347962;28;20236;-64
2022/02/21 09:57:05;;;;;;;13.63;3.47;;;;;;;10.84;36.36;96773.56;8348123;28;20559;-64
2022/02/21 10:01:08;;;;;;;13.63;3.63;;;;;;;11.13;37.07;96783.81;8347886;28;20228;-64
2022/02/21 10:05:12;;;;;;;11.00;3.53;;;;;;;11.13;36.71;96770.84;8347870;28;20255;-64
2022/02/21 10:09:16;;;;;;;9.13;3.00;;;;;;;10.56;37.96;96774.50;8347738;28;20228;-64
2022/02/21 10:13:21;;;;;;;10.23;3.23;;;;;;;11.44;36.70;96782.63;8346898;28;20236;-64
2022/02/21 10:17:25;;;;;;;8.33;2.80;;;;;;;12.58;35.07;96784.38;8347901;28;20415;-64
2022/02/21 10:21:28;;;;;;;8.83;2.90;;;;;;;12.95;34.77;96769.56;8347716;28;20232;-64
2022/02/21 10:25:32;;;;;;;12.53;2.97;;;;;;;12.56;34.13;96794.84;8347213;28;20244;-66
2022/02/21 10:29:46;;;;;;;10.37;2.90;;;;;;;12.19;34.35;96797.44;8347724;28;20547;-64
2022/02/21 10:33:59;;;;;;;11.33;3.37;;;;;;;12.13;33.84;96795.28;8347470;28;20244;-64
2022/02/21 10:38:03;;;;;;;7.13;2.53;;;;;;;12.60;33.14;96785.91;8347525;28;20562;-64
2022/02/21 10:42:08;;;;;;;9.77;2.80;;;;;;;12.13;33.34;96795.28;8347279;28;20232;-65
2022/02/21 10:46:15;;;;;;;10.63;2.83;;;;;;;12.49;33.83;96765.91;8347263;28;20547;-65
2022/02/21 10:50:18;;;;;;;8.03;2.63;;;;;;;12.68;33.66;96768.03;8347079;28;20224;-64
2022/02/21 10:54:28;;;;;;;8.77;2.40;;;;;;;11.92;34.18;96756.09;8346746;28;20238;-64
2022/02/21 10:58:31;;;;;;;6.10;2.50;;;;;;;11.13;35.92;96763.06;8346525;28;20547;-66
2022/02/21 11:02:39;;;;;;;7.47;2.60;;;;;;;11.88;36.03;96768.41;8346271;28;20232;-65
2022/02/21 11:06:42;;;;;;;6.10;2.70;;;;;;;11.57;36.76;96781.78;8346678;28;20236;-64
2022/02/21 11:10:45;;;;;;;7.43;2.23;;;;;;;10.87;37.84;96759.56;8346892;28;20232;-65
2022/02/21 11:14:49;;;;;;;6.67;1.83;;;;;;;10.96;37.56;96771.94;8346412;28;20240;-65
2022/02/21 11:18:54;;;;;;;4.33;1.50;;;;;;;10.91;39.76;96771.44;8346533;28;20227;-68
2022/02/21 11:22:57;;;;;;;4.90;1.60;;;;;;;10.76;39.46;96797.38;8339922;28;20239;-71
2022/02/21 11:27:11;;;;;;;3.67;1.30;;;;;;;10.19;40.24;96805.22;8319255;28;20232;-72
2022/02/21 11:31:15;;;;;;;5.67;1.90;;;;;;;10.34;40.73;96787.97;8339934;28;20232;-72
2022/02/21 11:35:20;;;;;;;4.37;1.80;;;;;;;10.37;40.83;96785.16;8351895;28;20243;-70
2022/02/21 11:39:26;;;;;;;6.47;1.97;;;;;;;10.48;40.77;96779.34;8351862;28;20235;-70
2022/02/21 11:43:46;;;;;;;6.67;2.10;;;;;;;10.37;40.98;96770.47;8351471;28;20304;-70
2022/02/21 11:47:51;;;;;;;7.73;1.97;;;;;;;10.17;41.75;96781.22;8351617;28;20551;-70
2022/02/21 11:51:58;;;;;;;7.37;2.13;;;;;;;9.97;41.41;96766.91;8351596;28;20236;-70
2022/02/21 11:56:03;;;;;;;6.60;2.07;;;;;;;10.22;41.50;96783.50;8351135;28;20243;-69
2022/02/21 12:00:37;;;;;;;5.33;1.70;;;;;;;11.03;39.85;96783.56;8351539;28;20235;-70
2022/02/21 12:04:50;;;;;;;5.73;1.97;;;;;;;11.03;37.91;96786.16;8324338;28;20303;-69
2022/02/21 12:08:55;;;;;;;4.57;1.57;;;;;;;10.87;38.22;96804.47;8350978;28;20227;-69
2022/02/21 12:12:59;;;;;;;6.03;1.80;;;;;;;10.45;39.81;96807.97;8351191;28;20235;-70
2022/02/21 12:17:07;;;;;;;2.77;1.20;;;;;;;10.40;40.12;96802.28;8350863;28;20589;-70
2022/02/21 12:21:11;;;;;;;3.43;1.70;;;;;;;10.48;40.84;96812.97;8350052;28;20227;-69
2022/02/21 12:25:19;;;;;;;6.47;1.70;;;;;;;10.11;41.57;96808.28;8349745;28;20231;-69
2022/02/21 12:29:24;;;;;;;3.20;1.27;;;;;;;10.67;40.37;96826.44;8350056;28;20239;-67
2022/02/21 12:33:29;;;;;;;4.47;1.40;;;;;;;10.20;39.92;96796.53;8350175;28;20238;-67
2022/02/21 12:37:36;;;;;;;5.57;1.50;;;;;;;10.12;40.14;96819.47;8348886;28;20228;-66
2022/02/21 12:41:42;;;;;;;9.00;3.53;;;;;;;10.21;40.00;96805.97;8350269;28;20239;-67
2022/02/21 12:45:49;;;;;;;3.53;1.40;;;;;;;10.31;39.40;96788.97;8349675;28;20306;-67
2022/02/21 12:49:53;;;;;;;3.73;1.50;;;;;;;10.62;38.44;96789.63;8349345;28;20239;-67
2022/02/21 12:54:01;;;;;;;4.97;2.90;;;;;;;10.58;38.50;96775.22;8349261;28;20260;-66
2022/02/21 12:58:12;;;;;;;5.70;2.77;;;;;;;11.00;37.67;96775.16;8349482;28;20242;-66
2022/02/21 13:02:16;;;;;;;8.77;5.27;;;;;;;11.19;38.02;96769.63;8349264;28;20236;-67
2022/02/21 13:06:19;;;;;;;5.83;3.00;;;;;;;10.95;38.25;96765.13;8349466;28;20242;-67
2022/02/21 13:10:22;;;;;;;9.77;2.60;;;;;;;10.41;38.37;96747.81;8349167;28;20228;-66
2022/02/21 13:14:27;;;;;;;5.93;2.00;;;;;;;10.55;37.67;96755.56;8348776;28;20232;-67
2022/02/21 13:18:49;;;;;;;5.93;2.10;;;;;;;10.44;37.28;96742.44;8348875;28;20242;-66
2022/02/21 13:22:56;;;;;;;7.23;2.10;;;;;;;10.35;37.32;96740.44;8348684;28;20515;-66
2022/02/21 13:27:01;;;;;;;5.27;1.67;;;;;;;10.40;38.09;96729.81;8348355;28;20400;-67
2022/02/21 13:31:06;;;;;;;11.00;2.20;;;;;;;10.16;38.37;96720.03;8348007;28;20422;-67
2022/02/21 13:35:13;;;;;;;8.33;2.27;;;;;;;9.87;38.72;96714.91;8347616;28;20234;-67
2022/02/21 13:39:22;;;;;;;7.60;2.37;;;;;;;10.07;40.27;96724.03;8347581;28;20235;-67
2022/02/21 13:43:26;;;;;;;6.47;2.20;;;;;;;10.09;40.60;96706.66;8347329;28;20224;-67
2022/02/21 13:47:32;;;;;;;10.57;2.30;;;;;;;10.27;40.07;96707.25;8347140;28;20422;-67
2022/02/21 13:51:35;;;;;;;5.97;2.30;;;;;;;10.15;39.87;96708.03;8346945;28;20418;-67
2022/02/21 13:55:39;;;;;;;7.63;2.10;;;;;;;10.15;39.03;96701.09;8344692;28;20236;-66
2022/02/21 13:59:44;;;;;;;5.07;1.87;;;;;;;10.51;38.66;96680.78;8348083;28;20239;-67
2022/02/21 14:03:50;;;;;;;10.17;1.97;;;;;;;10.81;37.21;96680.53;8315067;28;20240;-67
2022/02/21 14:07:53;;;;;;;4.90;2.10;;;;;;;10.40;37.97;96662.53;8314907;28;20233;-67
2022/02/21 14:11:57;;;;;;;5.73;1.80;;;;;;;9.81;39.32;96667.94;8314654;28;20235;-67
2022/02/21 14:16:00;;;;;;;4.50;1.47;;;;;;;10.19;38.40;96660.34;8314667;28;20240;-67
2022/02/21 14:20:05;;;;;;;7.07;1.60;;;;;;;10.24;39.20;96691.09;8314430;28;20425;-67
2022/02/21 14:24:28;;;;;;;3.90;1.50;;;;;;;10.03;40.53;96657.06;8314754;28;20251;-67
2022/02/21 14:28:32;;;;;;;5.10;3.00;;;;;;;9.85;41.20;96653.88;8339572;28;20223;-68
2022/02/21 14:32:41;;;;;;;7.87;4.90;;;;;;;9.81;41.43;96640.31;8346339;28;20232;-67
2022/02/21 14:37:06;;;;;;;4.97;2.00;;;;;;;10.04;42.17;96641.44;8345888;28;20239;-68
2022/02/21 14:41:09;;;;;;;4.83;1.70;;;;;;;9.82;43.23;96643.72;8333837;28;20233;-65
2022/02/21 14:45:12;;;;;;;6.07;2.17;;;;;;;9.60;43.84;96650.22;8345997;28;20232;-66
2022/02/21 14:49:16;;;;;;;6.70;2.00;;;;;;;9.06;45.42;96655.19;8345702;28;20243;-67
2022/02/21 14:53:20;;;;;;;5.77;2.20;;;;;;;9.20;45.81;96637.13;8343455;28;20220;-71
2022/02/21 14:57:23;;;;;;;7.07;2.60;;;;;;;9.44;45.64;96636.56;8346254;28;20267;-71
2022/02/21 15:01:27;;;;;;;5.80;1.63;;;;;;;9.35;46.05;96632.81;8352388;28;20399;-69
2022/02/21 15:05:30;;;;;;;6.17;2.10;;;;;;;9.08;47.07;96620.63;8349330;28;20239;-71
2022/02/21 15:09:34;;;;;;;6.00;2.30;;;;;;;9.24;46.63;96627.47;8352704;28;20224;-72
2022/02/21 15:13:37;;;;;;;7.43;2.40;;;;;;;8.95;47.70;96622.28;8353051;28;20243;-72
2022/02/21 15:17:40;;;;;;;6.60;2.27;;;;;;;9.03;48.08;96622.66;8352971;28;20236;-71
2022/02/21 15:21:43;;;;;;;5.97;1.83;;;;;;;8.74;48.85;96621.78;8353200;28;20242;-71
2022/02/21 15:25:48;;;;;;;5.80;2.20;;;;;;;8.82;49.32;96600.69;8352423;28;20255;-71
2022/02/21 15:29:51;;;;;;;4.77;1.77;;;;;;;9.37;48.61;96610.28;8352076;28;20424;-71
2022/02/21 15:33:54;;;;;;;5.73;2.00;;;;;;;9.22;49.23;96600.88;8352412;28;20240;-71
2022/02/21 15:37:57;;;;;;;12.37;2.80;;;;;;;9.34;58.87;96589.78;8352007;28;20244;-71
2022/02/21 15:42:01;;;;;;;7.33;2.43;;;;;;;8.94;50.60;96590.44;8351971;28;20232;-70
2022/02/21 15:46:07;;;;;;;8.57;2.30;;;;;;;8.72;51.04;96593.47;8350393;28;20306;-69
2022/02/21 15:50:11;;;;;;;7.17;2.10;;;;;;;8.43;51.50;96589.19;8350687;28;20286;-70
2022/02/21 15:54:15;;;;;;;6.13;1.87;;;;;;;8.26;51.33;96574.63;8348242;28;20535;-71
2022/02/21 15:58:19;;;;;;;6.83;2.47;;;;;;;8.68;51.58;96580.84;8350608;28;20422;-70
2022/02/21 16:02:22;;;;;;;5.93;2.10;;;;;;;8.65;52.46;96573.28;8350370;28;20412;-71
2022/02/21 16:06:26;;;;;;;6.23;2.07;;;;;;;8.87;52.51;96578.84;8349156;28;21272;-72
2022/02/21 16:10:34;;;;;;;6.97;2.43;;;;;;;8.73;52.75;96569.31;8347625;28;20224;-71
2022/02/21 16:14:40;;;;;;;8.73;2.43;;;;;;;8.69;53.43;96562.69;8338744;28;20305;-73
2022/02/21 16:18:44;;;;;;;6.90;2.10;;;;;;;8.61;54.13;96576.03;8349391;28;20240;-74
2022/02/21 16:22:50;;;;;;;6.30;2.03;;;;;;;8.61;54.72;96570.88;8347141;28;20523;-71
2022/02/21 16:26:53;;;;;;;5.37;1.80;;;;;;;8.51;55.15;96568.91;8348829;28;20232;-73
2022/02/21 16:30:57;;;;;;;5.07;2.03;;;;;;;8.25;55.43;96578.97;8349304;28;20232;-74
2022/02/21 16:35:01;;;;;;;4.63;1.70;;;;;;;8.35;55.36;96582.66;8349193;28;20220;-73
2022/02/21 16:39:04;;;;;;;10.17;2.07;;;;;;;8.30;55.75;96573.53;8349144;28;20407;-69
2022/02/21 16:43:08;;;;;;;6.30;2.10;;;;;;;8.27;56.17;96571.16;8345971;28;20228;-70
2022/02/21 16:47:14;;;;;;;6.27;2.07;;;;;;;8.23;55.67;96573.88;8348691;28;20231;-68
2022/02/21 16:51:17;;;;;;;4.60;1.73;;;;;;;8.23;56.14;96580.81;8347281;28;20327;-69
2022/02/21 16:55:22;;;;;;;6.13;2.20;;;;;;;8.05;56.71;96571.53;8348784;28;20232;-69
2022/02/21 16:59:25;;;;;;;6.40;1.87;;;;;;;8.40;55.22;96561.78;8348536;28;20508;-69
2022/02/21 17:03:30;;;;;;;6.27;1.80;;;;;;;7.86;56.70;96561.41;8348329;28;20232;-69
2022/02/21 17:07:33;;;;;;;7.17;2.13;;;;;;;8.03;56.31;96582.78;8347870;28;20224;-70
2022/02/21 17:11:36;;;;;;;8.30;2.23;;;;;;;8.26;56.82;96575.44;8345908;28;20235;-70
2022/02/21 17:15:39;;;;;;;5.77;2.10;;;;;;;7.83;58.58;96570.16;8347581;28;20228;-69
2022/02/21 17:19:43;;;;;;;8.73;2.20;;;;;;;7.98;59.66;96586.53;8347955;28;20550;-69
2022/02/21 17:23:47;;;;;;;5.00;2.00;;;;;;;7.79;60.15;96581.56;8347385;28;20228;-69
2022/02/21 17:27:50;;;;;;;4.87;1.63;;;;;;;7.91;60.34;96588.59;8347540;28;20418;-70
2022/02/21 17:31:53;;;;;;;3.60;1.60;;;;;;;8.03;60.23;96592.22;8347761;28;20236;-70
2022/02/21 17:35:58;;;;;;;7.93;3.20;;;;;;;8.06;60.18;96615.28;8344613;28;20235;-70
2022/02/21 17:40:01;;;;;;;5.20;1.93;;;;;;;7.81;60.87;96618.38;8345039;28;20224;-69
2022/02/21 17:44:04;;;;;;;5.07;1.77;;;;;;;7.93;60.48;96601.41;8346496;28;20236;-69
2022/02/21 17:48:08;;;;;;;3.67;1.43;;;;;;;7.94;60.53;96608.19;8364086;28;20231;-70
2022/02/21 17:52:12;;;;;;;3.03;1.40;;;;;;;8.06;60.21;96617.84;8346250;28;20235;-69
2022/02/21 17:56:15;;;;;;;3.93;1.57;;;;;;;7.82;61.44;96602.84;8347904;28;20423;-69
2022/02/21 18:00:18;;;;;;;1.80;1.07;;;;;;;7.99;60.16;96611.38;8347488;28;20224;-69
2022/02/21 18:04:29;;;;;;;2.50;1.40;;;;;;;7.70;61.29;96612.97;8345453;28;20566;-70
2022/02/21 18:08:33;;;;;;;3.30;1.10;;;;;;;7.73;61.88;96615.38;8346966;28;20236;-70
2022/02/21 18:12:39;;;;;;;4.10;1.20;;;;;;;7.71;62.15;96619.78;8347677;28;20531;-69
2022/02/21 18:16:42;;;;;;;3.27;1.30;;;;;;;7.86;62.19;96618.94;8347615;28;20240;-68
2022/02/21 18:20:45;;;;;;;2.80;1.20;;;;;;;7.62;62.27;96629.69;8347530;28;20232;-70
2022/02/21 18:24:50;;;;;;;3.17;1.03;;;;;;;7.78;62.34;96646.88;8347985;28;20558;-69
2022/02/21 18:28:57;;;;;;;4.03;1.63;;;;;;;7.62;62.50;96645.13;8347280;28;20236;-68
2022/02/21 18:32:59;;;;;;;4.20;1.00;;;;;;;7.64;62.48;96658.78;8346914;28;20231;-70
2022/02/21 18:37:03;;;;;;;2.33;1.10;;;;;;;7.93;62.13;96652.97;8349825;28;20228;-68
2022/02/21 18:41:08;;;;;;;3.07;1.47;;;;;;;7.62;62.69;96663.19;8352523;28;20223;-69
2022/02/21 18:45:15;;;;;;;2.37;1.10;;;;;;;7.69;62.87;96662.84;8353091;28;20227;-69
2022/02/21 18:49:18;;;;;;;2.20;1.10;;;;;;;7.40;63.96;96688.41;8353348;28;20232;-69
2022/02/21 18:53:21;;;;;;;2.57;1.40;;;;;;;7.48;64.45;96700.88;8353291;28;20254;-68
2022/02/21 18:57:30;;;;;;;3.33;1.53;;;;;;;7.57;64.11;96703.81;8353040;28;20247;-68
2022/02/21 19:01:33;;;;;;;3.47;1.57;;;;;;;7.73;63.54;96714.16;8350335;28;20224;-69
2022/02/21 19:05:36;;;;;;;2.30;1.20;;;;;;;7.60;63.60;96736.31;8353002;28;20236;-69
2022/02/21 19:09:41;;;;;;;5.20;1.50;;;;;;;7.63;64.19;96726.69;8352801;28;20547;-70
2022/02/21 19:13:46;;;;;;;3.03;1.30;;;;;;;7.56;64.25;96740.78;8353014;28;20243;-71
2022/02/21 19:17:49;;;;;;;4.37;2.20;;;;;;;7.44;64.72;96731.97;8351837;28;20602;-69